Time;durP1;ratioP1;P1;durP2;ratioP2;P2;SDS_P1;SDS_P2;PMS_P1;PMS_P2;Temp;Humidity;BMP_temperature;BMP_pressure;BME280_temperature;BME280_humidity;BME280_pressure;Samples;Min_cycle;Max_cycle;Signal;HPM_P1;HPM_P2
2023/06/07 00:00:01;;;;;;;11.30;4.72;;;10.10;99.90;;;;;;5034763;28;20053;-81
2023/06/07 00:02:27;;;;;;;10.60;4.85;;;10.10;99.90;;;;;;5034598;28;20128;-81
2023/06/07 00:04:53;;;;;;;10.73;4.97;;;10.00;99.90;;;;;;5034143;28;20100;-82
2023/06/07 00:07:18;;;;;;;9.68;3.50;;;10.00;99.90;;;;;;5030627;28;20068;-82
2023/06/07 00:09:44;;;;;;;10.40;5.25;;;10.00;99.90;;;;;;5034929;28;20037;-82
2023/06/07 00:12:10;;;;;;;11.25;4.65;;;10.00;99.90;;;;;;5032283;28;20648;-82
2023/06/07 00:14:36;;;;;;;13.68;5.57;;;9.90;99.90;;;;;;5032688;28;20960;-82
2023/06/07 00:17:02;;;;;;;9.50;4.15;;;9.90;99.90;;;;;;5013370;28;20037;-81
2023/06/07 00:19:29;;;;;;;8.48;4.38;;;9.80;99.90;;;;;;5030427;28;20041;-82
2023/06/07 00:21:55;;;;;;;11.93;4.50;;;9.80;99.90;;;;;;5031161;28;20052;-83
2023/06/07 00:24:21;;;;;;;12.27;4.53;;;9.80;99.90;;;;;;5033622;28;20042;-83
2023/06/07 00:26:47;;;;;;;14.63;5.10;;;9.80;99.90;;;;;;5031346;28;20037;-82
2023/06/07 00:29:14;;;;;;;14.57;4.22;;;9.70;99.90;;;;;;5029008;28;20041;-83
2023/06/07 00:31:40;;;;;;;13.60;6.20;;;9.80;99.90;;;;;;5030809;28;20095;-82
2023/06/07 00:34:06;;;;;;;13.40;4.93;;;9.70;99.90;;;;;;5031582;28;20041;-82
2023/06/07 00:36:33;;;;;;;8.25;4.85;;;9.70;99.90;;;;;;5032634;28;20037;-81
2023/06/07 00:38:59;;;;;;;10.98;4.50;;;9.70;99.90;;;;;;5032712;28;20087;-81
2023/06/07 00:41:25;;;;;;;14.02;5.15;;;9.70;99.90;;;;;;5032302;28;20037;-81
2023/06/07 00:43:50;;;;;;;10.50;4.78;;;9.70;99.90;;;;;;5030572;28;20073;-81
2023/06/07 00:46:21;;;;;;;13.85;5.22;;;9.70;99.90;;;;;;5043592;28;20037;-83
2023/06/07 00:48:49;;;;;;;12.93;4.25;;;9.70;99.90;;;;;;5029187;28;20160;-81
2023/06/07 00:51:15;;;;;;;16.63;5.07;;;9.80;99.90;;;;;;5030380;28;20037;-81
2023/06/07 00:53:42;;;;;;;13.88;4.28;;;9.70;99.90;;;;;;5032384;28;20045;-81
2023/06/07 00:56:08;;;;;;;12.27;5.55;;;9.70;99.90;;;;;;5029897;28;20056;-81
2023/06/07 00:58:34;;;;;;;11.88;4.45;;;9.80;99.90;;;;;;5028965;28;20046;-80
2023/06/07 01:01:01;;;;;;;14.20;4.93;;;9.70;99.90;;;;;;5031142;28;20049;-82
2023/06/07 01:03:27;;;;;;;9.05;4.88;;;9.70;99.90;;;;;;5029513;28;20057;-83
2023/06/07 01:05:53;;;;;;;14.60;5.22;;;9.70;99.90;;;;;;5030548;28;20041;-82
2023/06/07 01:08:20;;;;;;;12.98;4.50;;;9.70;99.90;;;;;;5026984;28;20065;-82
2023/06/07 01:10:46;;;;;;;11.57;4.63;;;9.60;99.90;;;;;;5028329;28;20111;-81
2023/06/07 01:13:14;;;;;;;8.80;4.55;;;9.60;99.90;;;;;;5031511;28;20053;-81
2023/06/07 01:15:40;;;;;;;13.55;4.90;;;9.50;99.90;;;;;;5030707;28;20079;-81
2023/06/07 01:18:09;;;;;;;8.55;4.25;;;9.50;99.90;;;;;;5028439;28;20038;-81
2023/06/07 01:20:36;;;;;;;8.07;3.33;;;9.50;99.90;;;;;;5031053;28;20069;-81
2023/06/07 01:23:05;;;;;;;9.55;5.18;;;9.40;99.90;;;;;;5028507;28;20128;-81
2023/06/07 01:25:31;;;;;;;9.57;4.25;;;9.40;99.90;;;;;;5024518;28;20041;-81
2023/06/07 01:27:59;;;;;;;11.82;4.90;;;9.30;99.90;;;;;;5030840;28;20380;-82
2023/06/07 01:30:25;;;;;;;7.55;4.40;;;9.30;99.90;;;;;;5030519;28;20046;-81
2023/06/07 01:32:52;;;;;;;7.47;4.00;;;9.20;99.90;;;;;;5031894;28;20086;-81
2023/06/07 01:35:19;;;;;;;6.53;3.85;;;9.10;99.90;;;;;;5029987;28;20038;-82
2023/06/07 01:37:46;;;;;;;8.77;4.22;;;9.10;99.90;;;;;;5030181;28;20522;-81
2023/06/07 01:40:13;;;;;;;5.97;3.95;;;9.00;99.90;;;;;;5030840;28;20092;-82
2023/06/07 01:42:39;;;;;;;6.90;3.97;;;8.90;99.90;;;;;;5031438;28;20407;-81
2023/06/07 01:45:06;;;;;;;5.13;3.40;;;8.90;99.90;;;;;;5028812;28;20040;-81
2023/06/07 01:47:32;;;;;;;7.38;4.68;;;8.90;99.90;;;;;;5029578;28;20038;-81
2023/06/07 01:49:57;;;;;;;6.90;5.10;;;8.90;99.90;;;;;;5031216;28;20413;-81
2023/06/07 01:52:23;;;;;;;8.70;5.90;;;8.90;99.90;;;;;;5031639;28;20088;-82
2023/06/07 01:54:50;;;;;;;9.52;4.65;;;8.90;99.90;;;;;;5028885;28;20089;-81
2023/06/07 01:57:27;;;;;;;7.50;3.92;;;8.90;99.90;;;;;;5034998;28;20037;-81
2023/06/07 02:00:06;;;;;;;12.27;4.93;;;8.90;99.90;;;;;;5035727;28;20057;-82
2023/06/07 02:02:39;;;;;;;10.07;4.53;;;8.80;99.90;;;;;;5033836;28;20409;-81
2023/06/07 02:05:12;;;;;;;22.38;3.85;;;8.60;99.90;;;;;;5033351;28;20084;-82
2023/06/07 02:07:51;;;;;;;13.55;4.30;;;8.60;99.90;;;;;;5034310;28;20038;-81
2023/06/07 02:10:20;;;;;;;14.95;5.35;;;8.60;99.90;;;;;;5035008;28;20033;-81
2023/06/07 02:12:46;;;;;;;9.55;4.85;;;8.60;99.90;;;;;;5045600;28;20046;-81
2023/06/07 02:15:12;;;;;;;13.00;4.72;;;8.70;99.90;;;;;;5034202;28;20052;-80
2023/06/07 02:17:57;;;;;;;9.70;4.78;;;8.70;99.90;;;;;;5031352;28;20079;-81
2023/06/07 02:20:30;;;;;;;12.95;5.75;;;8.70;99.90;;;;;;5030968;28;20385;-81
2023/06/07 02:22:57;;;;;;;10.18;4.72;;;8.80;99.90;;;;;;5030800;28;20582;-81
2023/06/07 02:25:26;;;;;;;11.93;5.15;;;8.80;99.90;;;;;;5032210;28;20045;-81
2023/06/07 02:27:53;;;;;;;10.40;4.72;;;8.90;99.90;;;;;;5028736;28;20049;-83
2023/06/07 02:30:19;;;;;;;14.00;5.28;;;9.00;99.90;;;;;;5048540;28;20041;-81
2023/06/07 02:32:45;;;;;;;15.02;5.20;;;9.00;99.90;;;;;;5031901;28;20946;-81
2023/06/07 02:35:11;;;;;;;13.20;5.25;;;9.10;99.90;;;;;;5033943;28;20128;-84
2023/06/07 02:37:37;;;;;;;10.43;4.40;;;9.10;99.90;;;;;;5032951;28;20040;-82
2023/06/07 02:40:10;;;;;;;8.13;4.05;;;9.10;99.90;;;;;;5033945;28;20045;-81
2023/06/07 02:42:45;;;;;;;11.80;4.63;;;9.10;99.90;;;;;;5032244;28;20060;-81
2023/06/07 02:45:12;;;;;;;9.55;5.45;;;9.10;99.90;;;;;;5031404;28;20488;-81
2023/06/07 02:47:38;;;;;;;9.50;4.30;;;9.20;99.90;;;;;;5031862;28;20037;-82
2023/06/07 02:50:06;;;;;;;11.95;5.13;;;9.20;99.90;;;;;;5034888;28;20034;-81
2023/06/07 02:52:33;;;;;;;13.00;5.60;;;9.30;99.90;;;;;;5032153;28;20033;-81
2023/06/07 02:54:59;;;;;;;13.50;5.82;;;9.30;99.90;;;;;;5031317;28;20052;-82
2023/06/07 02:57:25;;;;;;;16.42;5.50;;;9.40;99.90;;;;;;5033187;28;20033;-81
2023/06/07 02:59:52;;;;;;;15.95;5.70;;;9.50;99.90;;;;;;5032534;28;20041;-82
2023/06/07 03:02:18;;;;;;;14.55;5.93;;;9.50;99.90;;;;;;5032212;28;20381;-81
2023/06/07 03:04:44;;;;;;;14.02;6.28;;;9.60;99.90;;;;;;5033703;28;20048;-82
2023/06/07 03:07:10;;;;;;;16.80;5.82;;;9.60;99.90;;;;;;5033236;28;20939;-81
2023/06/07 03:09:37;;;;;;;15.73;6.38;;;9.70;99.90;;;;;;5031585;28;20940;-81
2023/06/07 03:12:03;;;;;;;19.08;5.95;;;9.80;99.90;;;;;;5032076;28;20140;-81
2023/06/07 03:14:28;;;;;;;12.55;5.68;;;9.80;99.90;;;;;;5031987;28;20049;-81
2023/06/07 03:16:54;;;;;;;15.13;5.85;;;9.80;99.90;;;;;;5032469;28;20140;-82
2023/06/07 03:19:19;;;;;;;24.55;6.85;;;9.90;99.90;;;;;;5031359;28;20065;-82
2023/06/07 03:21:45;;;;;;;10.20;5.15;;;10.00;99.90;;;;;;5033414;28;20042;-81
2023/06/07 03:24:16;;;;;;;18.40;6.50;;;10.00;99.90;;;;;;5031441;28;20053;-81
2023/06/07 03:26:42;;;;;;;18.13;5.47;;;10.10;99.90;;;;;;5033721;28;20206;-82
2023/06/07 03:29:09;;;;;;;16.83;5.90;;;10.10;99.90;;;;;;5032938;28;20487;-82
2023/06/07 03:31:34;;;;;;;15.18;6.93;;;10.10;99.90;;;;;;5033799;28;20045;-82
2023/06/07 03:34:00;;;;;;;14.63;4.82;;;10.20;99.90;;;;;;5034390;28;20116;-82
2023/06/07 03:36:28;;;;;;;15.50;6.35;;;10.20;99.90;;;;;;5032743;28;20045;-81
2023/06/07 03:38:54;;;;;;;13.95;5.00;;;10.20;99.90;;;;;;5032819;28;20098;-84
2023/06/07 03:41:20;;;;;;;22.10;5.60;;;10.30;99.90;;;;;;5032378;28;20515;-82
2023/06/07 03:43:46;;;;;;;16.50;5.25;;;10.30;99.90;;;;;;5035170;28;20076;-82
2023/06/07 03:46:11;;;;;;;18.17;5.93;;;10.30;99.90;;;;;;5033706;28;20064;-82
2023/06/07 03:48:38;;;;;;;14.45;5.28;;;10.40;99.90;;;;;;5032113;28;20045;-82
2023/06/07 03:51:04;;;;;;;14.52;7.05;;;10.30;99.90;;;;;;5034981;28;20042;-81
2023/06/07 03:53:29;;;;;;;11.88;5.15;;;10.40;99.90;;;;;;5033888;28;20056;-82
2023/06/07 03:55:55;;;;;;;18.42;5.15;;;10.40;99.90;;;;;;5032163;28;20045;-82
2023/06/07 03:58:20;;;;;;;13.10;4.55;;;10.50;99.90;;;;;;5032505;28;20500;-82
2023/06/07 04:00:49;;;;;;;17.90;4.80;;;10.60;99.90;;;;;;5032703;28;20116;-82
2023/06/07 04:03:15;;;;;;;15.05;5.43;;;10.60;99.90;;;;;;5030519;28;20496;-82
2023/06/07 04:05:40;;;;;;;12.32;5.05;;;10.60;99.90;;;;;;5032130;28;20038;-81
2023/06/07 04:08:06;;;;;;;13.38;5.28;;;10.70;99.90;;;;;;5031380;28;20041;-81
2023/06/07 04:10:32;;;;;;;10.50;5.05;;;10.70;99.90;;;;;;5031741;28;20753;-81
2023/06/07 04:12:58;;;;;;;14.80;4.60;;;10.80;99.90;;;;;;5032243;28;20053;-81
2023/06/07 04:15:23;;;;;;;19.27;5.45;;;10.80;99.90;;;;;;5028293;28;20045;-82
2023/06/07 04:17:49;;;;;;;13.20;4.30;;;10.80;99.90;;;;;;5030078;28;20067;-83
2023/06/07 04:20:15;;;;;;;15.43;5.30;;;10.90;99.90;;;;;;5033379;28;20044;-82
2023/06/07 04:22:44;;;;;;;14.45;5.38;;;10.90;99.90;;;;;;5033412;28;20045;-82
2023/06/07 04:25:10;;;;;;;17.38;4.82;;;11.00;99.90;;;;;;5034364;28;20491;-84
2023/06/07 04:27:37;;;;;;;16.70;4.07;;;11.00;99.90;;;;;;5032495;28;20041;-82
2023/06/07 04:30:05;;;;;;;14.30;4.20;;;11.20;99.90;;;;;;5031201;28;20077;-83
2023/06/07 04:32:33;;;;;;;15.25;4.10;;;11.20;99.90;;;;;;5010997;28;20041;-81
2023/06/07 04:34:59;;;;;;;12.90;4.22;;;11.30;99.90;;;;;;5032184;28;20048;-82
2023/06/07 04:37:24;;;;;;;17.27;4.13;;;11.50;99.90;;;;;;5033987;28;20038;-82
2023/06/07 04:39:51;;;;;;;12.18;3.72;;;11.60;99.90;;;;;;5032523;28;20044;-80
2023/06/07 04:42:17;;;;;;;15.18;4.35;;;11.60;99.90;;;;;;5030782;28;20056;-81
2023/06/07 04:44:44;;;;;;;14.65;3.40;;;11.70;99.90;;;;;;5028611;28;20515;-82
2023/06/07 04:47:10;;;;;;;13.02;3.60;;;11.80;99.90;;;;;;5030743;28;20535;-81
2023/06/07 04:49:38;;;;;;;11.80;4.00;;;12.00;99.90;;;;;;5047609;28;20090;-82
2023/06/07 04:52:05;;;;;;;14.80;3.60;;;12.40;99.90;;;;;;5031146;28;20656;-81
2023/06/07 04:54:32;;;;;;;14.25;4.60;;;12.50;99.90;;;;;;5032368;28;20077;-82
2023/06/07 04:56:58;;;;;;;12.90;3.35;;;12.50;99.90;;;;;;5032686;28;20116;-81
2023/06/07 04:59:24;;;;;;;10.23;3.45;;;12.50;99.90;;;;;;5033386;28;20103;-82
2023/06/07 05:01:50;;;;;;;12.50;3.60;;;12.50;99.90;;;;;;5031327;28;20055;-81
2023/06/07 05:04:19;;;;;;;13.27;3.95;;;12.80;99.90;;;;;;5030813;28;20049;-82
2023/06/07 05:06:45;;;;;;;10.32;3.72;;;12.80;99.90;;;;;;5034011;28;20095;-82
2023/06/07 05:09:11;;;;;;;15.88;4.32;;;13.00;99.90;;;;;;5032101;28;20476;-82
2023/06/07 05:11:37;;;;;;;7.50;3.58;;;13.10;99.90;;;;;;5031911;28;20052;-81
2023/06/07 05:14:02;;;;;;;8.20;3.10;;;13.20;99.90;;;;;;5032017;28;20095;-82
2023/06/07 05:16:32;;;;;;;9.57;3.25;;;13.20;99.90;;;;;;5035241;28;20045;-81
2023/06/07 05:18:58;;;;;;;10.73;3.25;;;13.40;99.90;;;;;;5031709;28;20045;-82
2023/06/07 05:21:24;;;;;;;20.35;3.40;;;13.40;99.90;;;;;;5032900;28;20174;-80
2023/06/07 05:23:49;;;;;;;14.32;4.38;;;13.50;99.90;;;;;;5030987;28;20508;-82
2023/06/07 05:26:15;;;;;;;19.13;4.25;;;13.50;99.90;;;;;;5035214;28;20072;-80
2023/06/07 05:28:42;;;;;;;21.42;4.20;;;13.50;99.90;;;;;;5034881;28;20037;-81
2023/06/07 05:31:07;;;;;;;21.20;4.68;;;13.50;99.90;;;;;;5035127;28;20037;-80
2023/06/07 05:33:33;;;;;;;18.40;3.97;;;13.40;99.90;;;;;;5038175;28;20060;-80
2023/06/07 05:35:58;;;;;;;13.35;4.20;;;13.40;99.90;;;;;;5041448;28;20044;-79
2023/06/07 05:38:24;;;;;;;13.65;3.60;;;13.40;99.90;;;;;;5040196;28;20068;-80
2023/06/07 05:40:50;;;;;;;16.95;4.43;;;13.40;99.90;;;;;;5038983;28;20037;-80
2023/06/07 05:43:15;;;;;;;17.00;3.80;;;13.40;99.90;;;;;;5040265;28;20049;-80
2023/06/07 05:45:41;;;;;;;14.68;3.97;;;13.30;99.90;;;;;;5038794;28;20037;-80
2023/06/07 05:48:07;;;;;;;12.50;2.78;;;13.30;99.90;;;;;;5038632;28;20064;-81
2023/06/07 05:50:33;;;;;;;11.30;2.67;;;13.40;99.90;;;;;;5036994;28;20085;-80
2023/06/07 05:52:59;;;;;;;12.77;3.42;;;13.60;99.90;;;;;;5039118;28;20060;-82
2023/06/07 05:55:28;;;;;;;11.13;3.60;;;14.00;99.90;;;;;;5039210;28;20417;-81
2023/06/07 05:58:14;;;;;;;12.05;2.80;;;14.50;99.90;;;;;;5036788;28;20037;-82
2023/06/07 06:00:40;;;;;;;12.45;2.95;;;15.10;99.90;;;;;;5039233;28;20085;-81
2023/06/07 06:03:06;;;;;;;11.52;2.53;;;15.60;99.90;;;;;;5038794;28;20053;-82
2023/06/07 06:05:32;;;;;;;14.57;2.63;;;15.90;99.90;;;;;;5037311;28;20156;-82
2023/06/07 06:07:58;;;;;;;11.27;2.80;;;15.90;99.90;;;;;;5042448;28;20037;-82
2023/06/07 06:10:25;;;;;;;11.82;2.97;;;16.10;99.90;;;;;;5042693;28;20069;-83
2023/06/07 06:12:50;;;;;;;13.00;2.55;;;16.20;99.90;;;;;;5025939;28;20064;-82
2023/06/07 06:15:16;;;;;;;9.95;3.20;;;16.20;99.90;;;;;;5043809;28;20045;-81
2023/06/07 06:17:42;;;;;;;18.85;3.55;;;16.00;99.90;;;;;;5040458;28;20052;-83
2023/06/07 06:20:08;;;;;;;10.77;2.70;;;15.80;99.90;;;;;;5040248;28;20030;-82
2023/06/07 06:22:34;;;;;;;15.38;2.58;;;15.70;99.90;;;;;;5038352;28;20052;-82
2023/06/07 06:24:59;;;;;;;8.95;2.88;;;15.90;99.90;;;;;;5040878;28;20111;-83
2023/06/07 06:27:25;;;;;;;10.18;3.50;;;16.20;99.90;;;;;;5039075;28;20342;-82
2023/06/07 06:29:50;;;;;;;9.70;2.95;;;16.20;99.90;;;;;;5039411;28;20037;-83
2023/06/07 06:32:16;;;;;;;11.32;3.05;;;16.40;99.90;;;;;;5038892;28;20492;-81
2023/06/07 06:34:44;;;;;;;15.85;2.53;;;16.40;99.90;;;;;;5037965;28;20520;-82
2023/06/07 06:37:09;;;;;;;13.90;2.67;;;16.10;99.90;;;;;;5038519;28;20076;-82
2023/06/07 06:39:35;;;;;;;8.77;2.38;;;16.30;99.90;;;;;;5031591;28;20052;-82
2023/06/07 06:42:01;;;;;;;16.52;2.53;;;16.20;99.90;;;;;;5038033;28;20128;-82
2023/06/07 06:44:26;;;;;;;10.40;3.38;;;16.20;99.90;;;;;;5034739;28;20519;-83
2023/06/07 06:46:52;;;;;;;10.65;3.20;;;16.10;99.90;;;;;;5038187;28;20048;-81
2023/06/07 06:49:17;;;;;;;14.13;3.42;;;16.20;99.90;;;;;;5036572;28;20381;-83
2023/06/07 06:51:43;;;;;;;12.80;3.08;;;16.40;99.90;;;;;;5035419;28;20033;-82
2023/06/07 06:54:09;;;;;;;8.90;2.60;;;16.60;99.90;;;;;;5035034;28;20053;-82
2023/06/07 06:56:34;;;;;;;9.65;2.72;;;16.80;99.90;;;;;;5036492;28;20041;-82
2023/06/07 06:59:00;;;;;;;12.15;2.72;;;17.10;99.90;;;;;;5035857;28;20037;-83
2023/06/07 07:01:45;;;;;;;13.10;2.95;;;17.60;99.90;;;;;;5037383;28;20403;-82
2023/06/07 07:04:11;;;;;;;8.07;2.63;;;18.00;99.90;;;;;;5032540;28;20041;-83
2023/06/07 07:06:37;;;;;;;10.70;2.53;;;18.40;99.90;;;;;;5035048;28;20037;-84
2023/06/07 07:09:03;;;;;;;12.88;3.53;;;18.70;99.90;;;;;;5035833;28;20045;-81
2023/06/07 07:11:28;;;;;;;10.82;2.40;;;19.00;99.90;;;;;;5037176;28;20033;-83
2023/06/07 07:13:54;;;;;;;8.98;2.15;;;19.40;99.90;;;;;;5035298;28;20542;-83
2023/06/07 07:16:19;;;;;;;11.95;2.95;;;19.50;99.90;;;;;;5036247;28;20041;-84
2023/06/07 07:18:45;;;;;;;6.75;2.20;;;19.70;99.90;;;;;;5036205;28;20045;-83
2023/06/07 07:21:10;;;;;;;9.95;2.60;;;20.00;99.90;;;;;;5034239;28;20042;-82
2023/06/07 07:23:36;;;;;;;7.50;2.35;;;20.10;99.90;;;;;;5034116;28;20037;-82
2023/06/07 07:26:02;;;;;;;9.13;2.65;;;20.20;99.90;;;;;;5036791;28;20037;-84
2023/06/07 07:28:30;;;;;;;10.73;2.03;;;20.20;99.90;;;;;;5035094;28;20045;-82
2023/06/07 07:30:55;;;;;;;7.20;2.70;;;20.40;99.90;;;;;;5035188;28;20037;-82
2023/06/07 07:33:21;;;;;;;9.38;3.13;;;20.40;99.90;;;;;;5037166;28;20048;-83
2023/06/07 07:35:46;;;;;;;8.35;3.05;;;20.40;99.90;;;;;;5035215;28;20053;-82
2023/06/07 07:38:15;;;;;;;9.13;2.20;;;20.10;99.90;;;;;;5030575;28;20500;-84
2023/06/07 07:40:43;;;;;;;6.35;2.10;;;19.80;99.90;;;;;;5029210;28;20048;-83
2023/06/07 07:43:10;;;;;;;10.45;2.47;;;19.60;99.90;;;;;;5033484;28;20084;-83
2023/06/07 07:45:36;;;;;;;7.72;2.10;;;19.50;99.90;;;;;;5034724;28;20068;-82
2023/06/07 07:48:02;;;;;;;7.38;2.13;;;19.50;99.90;;;;;;5044835;28;20048;-82
2023/06/07 07:50:31;;;;;;;9.80;3.00;;;19.40;99.90;;;;;;5032773;28;20045;-82
2023/06/07 07:52:57;;;;;;;7.65;2.30;;;19.20;99.90;;;;;;5035395;28;20041;-84
2023/06/07 07:55:23;;;;;;;10.27;3.20;;;19.20;99.90;;;;;;5035436;28;20076;-82
2023/06/07 07:57:49;;;;;;;8.43;2.30;;;19.40;99.90;;;;;;5036666;28;20037;-83
2023/06/07 08:00:16;;;;;;;11.40;3.10;;;19.50;99.90;;;;;;5032981;28;20033;-84
2023/06/07 08:02:42;;;;;;;9.93;2.42;;;19.70;99.90;;;;;;5033683;28;20041;-83
2023/06/07 08:05:08;;;;;;;8.27;2.70;;;19.80;99.90;;;;;;5036496;28;20555;-83
2023/06/07 08:07:34;;;;;;;6.80;1.80;;;20.00;99.90;;;;;;5034918;28;20041;-83
2023/06/07 08:09:59;;;;;;;10.07;3.03;;;20.00;99.90;;;;;;5035447;28;20048;-82
2023/06/07 08:12:25;;;;;;;9.38;3.22;;;19.90;99.90;;;;;;5036022;28;20052;-83
2023/06/07 08:14:51;;;;;;;8.57;2.33;;;20.00;99.90;;;;;;5033708;28;20423;-83
2023/06/07 08:17:19;;;;;;;8.68;2.95;;;20.10;99.90;;;;;;5035136;28;20477;-83
2023/06/07 08:19:46;;;;;;;9.82;2.83;;;20.10;99.90;;;;;;5018134;28;20052;-83
2023/06/07 08:22:11;;;;;;;6.63;2.45;;;20.20;99.90;;;;;;5033933;28;20044;-83
2023/06/07 08:24:37;;;;;;;11.82;2.55;;;20.20;99.90;;;;;;5035249;28;20033;-82
2023/06/07 08:27:03;;;;;;;9.48;2.63;;;20.30;99.90;;;;;;5034903;28;20116;-82
2023/06/07 08:29:28;;;;;;;11.27;3.03;;;20.40;99.90;;;;;;5033921;28;20041;-83
2023/06/07 08:31:54;;;;;;;9.27;2.70;;;20.50;99.90;;;;;;5033001;28;20037;-83
2023/06/07 08:34:26;;;;;;;8.02;2.70;;;20.50;99.90;;;;;;5033950;28;20718;-82
2023/06/07 08:36:52;;;;;;;9.73;2.72;;;20.60;99.90;;;;;;5036445;28;20038;-82
2023/06/07 08:39:17;;;;;;;11.95;2.85;;;20.50;99.90;;;;;;5032425;28;20041;-83
2023/06/07 08:41:43;;;;;;;10.20;3.03;;;20.70;99.90;;;;;;5034651;28;20041;-83
2023/06/07 08:44:08;;;;;;;9.05;2.42;;;20.50;99.90;;;;;;5034195;28;20037;-83
2023/06/07 08:46:35;;;;;;;7.53;3.05;;;20.50;99.90;;;;;;5034665;28;20600;-82
2023/06/07 08:49:02;;;;;;;6.15;2.80;;;20.50;99.90;;;;;;5031828;28;20478;-83
2023/06/07 08:51:38;;;;;;;9.77;3.35;;;20.50;99.90;;;;;;5032457;28;20045;-83
2023/06/07 08:54:04;;;;;;;8.60;2.42;;;20.70;99.90;;;;;;5034982;28;20091;-82
2023/06/07 08:56:33;;;;;;;7.88;2.92;;;20.80;99.90;;;;;;5032998;28;20041;-83
2023/06/07 08:59:01;;;;;;;15.50;3.35;;;20.80;99.90;;;;;;5034590;28;20049;-84
2023/06/07 09:01:29;;;;;;;5.45;2.33;;;20.80;99.90;;;;;;5033482;28;20045;-83
2023/06/07 09:03:55;;;;;;;9.38;2.75;;;21.00;99.90;;;;;;5030417;28;20095;-82
2023/06/07 09:06:22;;;;;;;9.32;2.92;;;21.00;99.90;;;;;;5035855;28;20451;-83
2023/06/07 09:08:48;;;;;;;8.65;3.25;;;20.90;99.90;;;;;;5034419;28;20509;-83
2023/06/07 09:11:15;;;;;;;15.43;3.80;;;21.00;99.90;;;;;;5033419;28;20029;-82
2023/06/07 09:13:41;;;;;;;10.70;2.60;;;21.10;99.90;;;;;;5032371;28;20064;-83
2023/06/07 09:16:08;;;;;;;9.80;2.67;;;21.00;99.90;;;;;;5033733;28;20093;-83
2023/06/07 09:18:45;;;;;;;10.65;3.08;;;21.10;99.90;;;;;;5032364;28;20045;-84
2023/06/07 09:21:22;;;;;;;7.82;2.70;;;21.20;99.90;;;;;;5033310;28;20476;-82
2023/06/07 09:23:49;;;;;;;9.90;2.75;;;21.30;99.90;;;;;;5031095;28;20909;-83
2023/06/07 09:26:20;;;;;;;5.05;2.22;;;21.20;99.90;;;;;;5036247;28;20052;-84
2023/06/07 09:28:46;;;;;;;7.93;2.50;;;21.10;99.90;;;;;;5035969;28;20116;-83
2023/06/07 09:31:13;;;;;;;7.57;2.25;;;21.30;99.90;;;;;;5035020;28;20045;-84
2023/06/07 09:33:39;;;;;;;5.68;2.10;;;21.40;99.90;;;;;;5032668;28;20091;-84
2023/06/07 09:36:06;;;;;;;7.22;2.40;;;21.40;99.90;;;;;;5033954;28;20033;-82
2023/06/07 09:38:33;;;;;;;6.70;1.98;;;21.50;99.90;;;;;;5035723;28;20041;-82
2023/06/07 09:41:00;;;;;;;11.75;2.95;;;21.80;99.90;;;;;;5032056;28;20050;-83
2023/06/07 09:43:26;;;;;;;9.32;3.45;;;21.90;99.90;;;;;;5034227;28;20041;-83
2023/06/07 09:45:56;;;;;;;6.72;2.17;;;22.00;99.90;;;;;;5033240;28;20044;-83
2023/06/07 09:48:22;;;;;;;5.88;2.13;;;22.20;99.90;;;;;;5032483;28;20030;-83
2023/06/07 09:50:58;;;;;;;6.00;2.45;;;22.40;99.90;;;;;;5032769;28;20037;-83
2023/06/07 09:53:24;;;;;;;7.95;2.85;;;22.40;99.90;;;;;;5031785;28;20049;-82
2023/06/07 09:55:50;;;;;;;8.63;2.63;;;22.50;99.90;;;;;;5035628;28;20173;-83
2023/06/07 09:58:23;;;;;;;7.45;2.70;;;22.30;99.90;;;;;;5032712;28;20053;-83
2023/06/07 10:00:49;;;;;;;8.93;2.83;;;22.20;99.90;;;;;;5033981;28;20041;-84
2023/06/07 10:03:16;;;;;;;9.07;3.03;;;22.10;99.90;;;;;;5033393;28;20396;-82
2023/06/07 10:05:43;;;;;;;10.10;2.83;;;22.00;99.90;;;;;;5031479;28;20052;-84
2023/06/07 10:08:10;;;;;;;7.72;2.42;;;22.20;99.90;;;;;;5029218;28;20037;-84
2023/06/07 10:10:59;;;;;;;9.68;2.80;;;22.10;99.90;;;;;;5030858;28;20049;-84
2023/06/07 10:13:25;;;;;;;7.38;2.75;;;21.70;99.90;;;;;;5025326;28;20060;-85
2023/06/07 10:15:54;;;;;;;7.60;2.63;;;22.00;99.90;;;;;;5011659;28;20567;-84
2023/06/07 10:18:24;;;;;;;7.78;2.72;;;21.80;99.90;;;;;;5015994;28;20045;-84
2023/06/07 10:21:06;;;;;;;6.15;2.60;;;21.80;99.90;;;;;;5032973;28;20029;-85
2023/06/07 10:23:41;;;;;;;8.88;2.70;;;21.70;99.90;;;;;;5034689;28;20046;-84
2023/06/07 10:26:29;;;;;;;20.83;5.00;;;21.70;99.90;;;;;;5033733;28;20057;-85
2023/06/07 10:29:06;;;;;;;8.32;2.60;;;21.80;99.90;;;;;;5031608;28;20033;-85
2023/06/07 10:31:36;;;;;;;13.88;3.30;;;22.00;99.90;;;;;;5034550;28;20040;-84
2023/06/07 10:34:07;;;;;;;8.85;2.83;;;22.00;99.90;;;;;;5034793;28;20041;-85
2023/06/07 10:36:42;;;;;;;12.15;3.95;;;21.90;99.90;;;;;;5015082;28;20132;-84
2023/06/07 10:39:11;;;;;;;8.05;2.53;;;22.00;99.90;;;;;;5030641;28;20128;-85
2023/06/07 10:41:37;;;;;;;7.47;2.75;;;22.30;99.90;;;;;;5031416;28;20117;-85
2023/06/07 10:44:03;;;;;;;8.93;2.75;;;22.40;99.90;;;;;;5033675;28;20123;-83
2023/06/07 10:46:29;;;;;;;10.70;3.08;;;22.50;99.90;;;;;;5035604;28;20389;-84
2023/06/07 10:48:58;;;;;;;8.65;3.08;;;22.50;99.90;;;;;;5026302;28;20061;-85
2023/06/07 10:51:44;;;;;;;10.70;3.50;;;22.30;99.90;;;;;;5034444;28;20045;-84
2023/06/07 10:54:10;;;;;;;14.60;2.80;;;22.40;99.90;;;;;;5030374;28;20052;-84
2023/06/07 10:56:37;;;;;;;7.82;3.13;;;22.60;99.90;;;;;;5034430;28;20034;-84
2023/06/07 10:59:15;;;;;;;9.80;2.88;;;22.60;99.90;;;;;;5031243;28;20061;-85
2023/06/07 11:01:43;;;;;;;7.32;2.90;;;22.70;99.90;;;;;;5016242;28;20033;-85
2023/06/07 11:04:35;;;;;;;9.07;2.97;;;22.70;99.90;;;;;;5033225;28;20040;-85
2023/06/07 11:07:19;;;;;;;9.00;2.85;;;22.40;99.90;;;;;;5031127;28;20048;-85
2023/06/07 11:09:46;;;;;;;5.65;2.85;;;22.50;99.90;;;;;;5023769;28;20159;-84
2023/06/07 11:12:46;;;;;;;8.00;3.33;;;22.40;99.90;;;;;;5033165;28;20037;-84
2023/06/07 11:15:20;;;;;;;11.02;3.33;;;22.50;99.90;;;;;;5032352;28;20042;-84
2023/06/07 11:17:53;;;;;;;9.68;2.95;;;22.80;99.90;;;;;;5028894;28;20484;-83
2023/06/07 11:23:29;;;;;;;11.35;3.40;;;22.90;99.90;;;;;;5032478;28;20056;-84
2023/06/07 11:26:12;;;;;;;12.20;2.90;;;22.70;99.90;;;;;;5031531;28;20043;-85
2023/06/07 11:28:40;;;;;;;9.82;2.75;;;22.60;99.90;;;;;;5031737;28;20048;-84
2023/06/07 11:31:10;;;;;;;9.82;2.97;;;22.30;99.90;;;;;;5032851;28;20043;-83
2023/06/07 11:33:56;;;;;;;8.68;3.75;;;22.60;99.90;;;;;;5031016;28;20037;-82
2023/06/07 11:36:21;;;;;;;7.03;2.95;;;22.80;99.90;;;;;;5013579;28;20611;-85
2023/06/07 11:38:54;;;;;;;7.60;2.30;;;22.80;99.90;;;;;;5033200;28;20450;-84
2023/06/07 11:41:21;;;;;;;10.13;3.00;;;22.90;99.90;;;;;;5030298;28;20049;-83
2023/06/07 11:43:47;;;;;;;9.38;3.05;;;22.90;99.90;;;;;;5031900;28;20092;-84
2023/06/07 11:46:20;;;;;;;8.70;3.22;;;22.80;99.90;;;;;;5031054;28;20391;-84
2023/06/07 11:48:45;;;;;;;7.50;3.05;;;22.90;99.90;;;;;;5031249;28;20038;-84
2023/06/07 11:51:11;;;;;;;8.52;2.97;;;22.90;99.90;;;;;;5033622;28;20503;-84
2023/06/07 11:53:37;;;;;;;8.43;3.70;;;22.90;99.90;;;;;;5028514;28;20071;-84
2023/06/07 11:56:03;;;;;;;10.85;3.05;;;23.00;99.90;;;;;;5032980;28;20112;-82
2023/06/07 11:58:30;;;;;;;6.25;2.75;;;23.10;99.90;;;;;;5030500;28;20045;-83
2023/06/07 12:00:56;;;;;;;9.85;3.33;;;23.10;99.90;;;;;;5029729;28;20381;-84
2023/06/07 12:03:23;;;;;;;8.90;2.83;;;23.10;99.80;;;;;;5028746;28;20082;-84
2023/06/07 12:05:48;;;;;;;10.88;3.03;;;22.90;99.30;;;;;;5031157;28;20132;-84
2023/06/07 12:08:17;;;;;;;8.65;3.08;;;22.80;99.30;;;;;;5031473;28;20112;-84
2023/06/07 12:10:52;;;;;;;9.73;2.70;;;22.80;99.60;;;;;;5026924;28;20053;-84
2023/06/07 12:13:19;;;;;;;8.15;3.13;;;22.70;99.90;;;;;;5030452;28;20037;-83
2023/06/07 12:15:48;;;;;;;9.40;2.92;;;22.80;99.90;;;;;;5035802;28;20136;-82
2023/06/07 12:18:26;;;;;;;9.27;2.78;;;22.80;99.80;;;;;;5032584;28;20068;-82
2023/06/07 12:21:01;;;;;;;8.07;2.90;;;22.70;99.90;;;;;;5031590;28;20060;-83
2023/06/07 12:23:26;;;;;;;9.75;3.20;;;22.90;99.90;;;;;;5022373;28;20980;-84
2023/06/07 12:26:08;;;;;;;11.30;2.95;;;22.90;99.90;;;;;;5028548;28;20043;-83
2023/06/07 12:28:34;;;;;;;7.55;2.90;;;23.00;99.90;;;;;;5039793;28;20065;-84
2023/06/07 12:30:59;;;;;;;8.38;3.40;;;23.10;99.90;;;;;;5024755;28;20873;-82
2023/06/07 12:33:26;;;;;;;9.18;3.20;;;22.90;98.90;;;;;;5027438;28;20041;-84
2023/06/07 12:35:52;;;;;;;13.35;3.97;;;22.80;99.90;;;;;;5031501;28;20080;-83
2023/06/07 12:38:20;;;;;;;11.05;3.03;;;22.50;99.90;;;;;;5028528;28;20135;-82
2023/06/07 12:40:46;;;;;;;7.55;3.38;;;22.70;99.90;;;;;;5030026;28;20041;-84
2023/06/07 12:43:12;;;;;;;8.93;3.78;;;22.80;99.90;;;;;;5027689;28;20400;-81
2023/06/07 12:45:37;;;;;;;5.85;2.97;;;22.80;99.90;;;;;;5015778;28;20037;-84
2023/06/07 12:48:03;;;;;;;10.50;3.80;;;22.80;99.90;;;;;;5026509;28;20399;-83